Time;durP1;ratioP1;P1;durP2;ratioP2;P2;SDS_P1;SDS_P2;PMS_P1;PMS_P2;Temp;Humidity;BMP_temperature;BMP_pressure;BME280_temperature;BME280_humidity;BME280_pressure;Samples;Min_cycle;Max_cycle;Signal;HPM_P1;HPM_P2
2022/04/04 00:00:13;;;;;;;33.90;22.40;;;6.00;75.30;;;;;;5095614;28;20044;-12
2022/04/04 00:02:39;;;;;;;32.00;22.17;;;6.00;75.70;;;;;;5096123;28;20032;-12
2022/04/04 00:05:06;;;;;;;33.08;22.67;;;5.90;76.30;;;;;;5096326;28;20028;-12
2022/04/04 00:07:32;;;;;;;36.33;22.63;;;5.90;76.40;;;;;;5095876;28;20036;-12
2022/04/04 00:09:58;;;;;;;34.90;22.33;;;5.90;76.80;;;;;;5095715;28;20028;-12
2022/04/04 00:12:24;;;;;;;33.55;22.98;;;5.90;76.80;;;;;;5095277;28;20032;-12
2022/04/04 00:14:51;;;;;;;32.75;22.13;;;5.90;76.60;;;;;;5095579;28;20026;-12
2022/04/04 00:17:16;;;;;;;34.85;22.20;;;5.90;76.10;;;;;;5095768;28;20032;-12
2022/04/04 00:19:43;;;;;;;36.60;22.27;;;5.90;76.50;;;;;;5095287;28;20028;-12
2022/04/04 00:22:09;;;;;;;27.17;19.17;;;5.90;76.00;;;;;;5095414;28;20028;-11
2022/04/04 00:24:36;;;;;;;38.10;23.30;;;5.90;76.60;;;;;;5095145;28;20028;-12
2022/04/04 00:27:02;;;;;;;34.30;20.55;;;5.90;76.80;;;;;;5094436;28;20119;-13
2022/04/04 00:29:28;;;;;;;30.75;21.08;;;5.90;75.80;;;;;;5095234;28;20073;-12
2022/04/04 00:31:54;;;;;;;31.67;21.30;;;5.90;76.10;;;;;;5095173;28;20040;-13
2022/04/04 00:34:20;;;;;;;33.95;21.80;;;5.90;75.80;;;;;;5093088;28;20028;-12
2022/04/04 00:36:47;;;;;;;35.47;21.38;;;5.90;76.40;;;;;;5095343;28;20118;-12
2022/04/04 00:39:16;;;;;;;30.63;20.48;;;5.90;75.90;;;;;;5095088;28;20028;-12
2022/04/04 00:41:45;;;;;;;32.17;21.73;;;5.90;76.20;;;;;;5095010;28;20454;-12
2022/04/04 00:44:11;;;;;;;32.20;20.50;;;5.90;75.90;;;;;;5094992;28;20016;-12
2022/04/04 00:46:41;;;;;;;30.33;20.30;;;5.90;75.50;;;;;;5095225;28;20080;-12
2022/04/04 00:49:08;;;;;;;31.05;20.73;;;5.90;75.20;;;;;;5095216;28;20049;-12
2022/04/04 00:51:36;;;;;;;32.63;20.25;;;5.90;75.20;;;;;;5095034;28;20085;-13
2022/04/04 00:54:04;;;;;;;28.60;17.98;;;5.90;75.30;;;;;;5094697;28;20496;-12
2022/04/04 00:56:34;;;;;;;25.65;16.73;;;5.90;75.30;;;;;;5094551;28;20546;-12
2022/04/04 00:59:02;;;;;;;22.98;15.25;;;5.90;75.30;;;;;;5094616;28;20518;-13
2022/04/04 01:01:28;;;;;;;22.35;15.27;;;5.90;75.40;;;;;;5095007;28;20025;-12
2022/04/04 01:03:54;;;;;;;24.05;16.23;;;5.90;75.30;;;;;;5094576;28;20039;-13
2022/04/04 01:06:20;;;;;;;23.02;16.38;;;5.90;75.40;;;;;;5094924;28;20024;-12
2022/04/04 01:08:46;;;;;;;21.67;14.15;;;5.90;75.50;;;;;;5093248;28;20032;-12
2022/04/04 01:11:12;;;;;;;20.67;13.18;;;5.90;75.20;;;;;;5094419;28;20488;-12
2022/04/04 01:13:45;;;;;;;21.67;14.95;;;5.90;75.10;;;;;;5094472;28;20488;-12
2022/04/04 01:16:11;;;;;;;20.75;14.43;;;6.00;75.00;;;;;;5094324;28;20032;-12
2022/04/04 01:18:37;;;;;;;22.38;15.07;;;6.00;74.90;;;;;;5095419;28;20031;-12
2022/04/04 01:21:03;;;;;;;20.75;14.55;;;6.00;75.00;;;;;;5094216;28;20028;-12
2022/04/04 01:23:39;;;;;;;21.17;14.00;;;6.00;75.00;;;;;;5094215;28;20055;-13
2022/04/04 01:26:09;;;;;;;22.98;16.15;;;6.00;75.00;;;;;;5094181;28;20107;-13
2022/04/04 01:28:37;;;;;;;28.17;16.73;;;6.00;75.10;;;;;;5093739;28;20020;-12
2022/04/04 01:31:04;;;;;;;19.48;13.10;;;5.90;75.10;;;;;;5094859;28;20066;-12
2022/04/04 01:33:30;;;;;;;27.23;16.67;;;6.00;75.10;;;;;;5094023;28;20112;-12
2022/04/04 01:35:57;;;;;;;20.52;14.57;;;6.00;75.30;;;;;;5094202;28;20024;-13
2022/04/04 01:38:27;;;;;;;21.38;14.68;;;6.00;75.30;;;;;;5093776;28;20024;-13
2022/04/04 01:40:53;;;;;;;20.92;13.40;;;5.90;75.30;;;;;;5094791;28;20016;-12
2022/04/04 01:43:20;;;;;;;21.60;14.60;;;6.00;75.30;;;;;;5094076;28;20093;-12
2022/04/04 01:48:38;;;;;;;20.08;13.27;;;5.90;75.40;;;;;;5093674;28;20039;-12
2022/04/04 01:51:04;;;;;;;20.98;14.88;;;5.90;75.40;;;;;;5093751;28;20028;-12
2022/04/04 01:53:32;;;;;;;25.33;16.52;;;5.90;75.40;;;;;;5093624;28;20048;-12
2022/04/04 01:56:03;;;;;;;22.85;15.50;;;5.90;75.50;;;;;;5093926;28;20111;-12
2022/04/04 01:58:31;;;;;;;23.35;15.63;;;5.90;75.50;;;;;;5093944;28;20028;-12
2022/04/04 02:00:58;;;;;;;21.40;14.88;;;5.90;75.50;;;;;;5093850;28;20054;-12
2022/04/04 02:03:25;;;;;;;21.13;14.65;;;5.90;75.50;;;;;;5093526;28;20046;-12
2022/04/04 02:05:51;;;;;;;22.00;15.18;;;5.90;75.70;;;;;;5092280;28;20042;-12
2022/04/04 02:08:17;;;;;;;19.73;13.35;;;5.90;75.60;;;;;;5092051;28;20053;-12
2022/04/04 02:10:44;;;;;;;18.92;13.32;;;5.90;75.70;;;;;;5093741;28;20020;-12
2022/04/04 02:13:11;;;;;;;18.70;12.27;;;5.90;75.70;;;;;;5093588;28;20100;-11
2022/04/04 02:15:37;;;;;;;18.58;13.35;;;5.90;75.70;;;;;;5093227;28;20032;-12
2022/04/04 02:18:03;;;;;;;21.38;14.50;;;5.90;75.70;;;;;;5094439;28;20028;-12
2022/04/04 02:20:29;;;;;;;15.77;9.80;;;5.90;75.80;;;;;;5093085;28;20107;-12
2022/04/04 02:22:55;;;;;;;14.13;10.18;;;5.90;75.60;;;;;;5093273;28;20119;-12
2022/04/04 02:25:22;;;;;;;16.40;10.50;;;5.90;75.60;;;;;;5092007;28;20085;-12
2022/04/04 02:27:48;;;;;;;17.33;11.35;;;5.90;75.60;;;;;;5093139;28;20107;-12
2022/04/04 02:30:14;;;;;;;17.25;11.45;;;5.90;75.70;;;;;;5093044;28;20103;-12
2022/04/04 02:32:40;;;;;;;15.10;9.93;;;5.90;75.90;;;;;;5094012;28;20158;-12
2022/04/04 02:35:07;;;;;;;13.02;8.85;;;5.90;76.00;;;;;;5091886;28;20123;-12
2022/04/04 02:37:33;;;;;;;16.02;10.55;;;5.90;75.70;;;;;;5093099;28;20621;-11
2022/04/04 02:40:00;;;;;;;16.75;11.70;;;5.90;75.80;;;;;;5093613;28;20030;-12
2022/04/04 02:42:26;;;;;;;15.85;10.18;;;5.90;75.80;;;;;;5092788;28;20043;-13
2022/04/04 02:44:54;;;;;;;16.45;10.82;;;5.90;75.80;;;;;;5093341;28;20036;-12
2022/04/04 02:47:20;;;;;;;15.63;10.38;;;5.90;75.90;;;;;;5093034;28;20392;-12
2022/04/04 02:49:46;;;;;;;18.60;11.80;;;5.90;75.90;;;;;;5093042;28;20024;-12
2022/04/04 02:52:12;;;;;;;18.23;12.90;;;5.90;76.10;;;;;;5093210;28;20055;-12
2022/04/04 02:54:38;;;;;;;16.58;11.30;;;5.90;76.20;;;;;;5092982;28;20031;-12
2022/04/04 02:57:04;;;;;;;16.23;10.57;;;5.90;76.40;;;;;;5095624;28;20130;-11
2022/04/04 02:59:30;;;;;;;13.32;9.23;;;5.80;76.30;;;;;;5096978;28;20028;-12
2022/04/04 03:01:56;;;;;;;18.85;13.07;;;5.80;76.50;;;;;;5096940;28;20023;-13
2022/04/04 03:04:23;;;;;;;16.98;11.38;;;5.80;76.80;;;;;;5096702;28;20020;-13
2022/04/04 03:06:50;;;;;;;20.42;13.68;;;5.70;76.70;;;;;;5096814;28;20032;-11
2022/04/04 03:09:16;;;;;;;21.83;13.85;;;5.70;76.50;;;;;;5097048;28;20027;-13
2022/04/04 03:11:42;;;;;;;20.15;15.15;;;5.60;76.50;;;;;;5097368;28;20028;-11
2022/04/04 03:14:08;;;;;;;20.77;14.55;;;5.50;76.50;;;;;;5096973;28;20105;-13
2022/04/04 03:16:34;;;;;;;21.15;14.73;;;5.50;76.60;;;;;;5096335;28;20476;-12
2022/04/04 03:19:00;;;;;;;20.25;14.20;;;5.40;76.80;;;;;;5096935;28;20024;-12
2022/04/04 03:21:30;;;;;;;23.23;14.98;;;5.40;76.90;;;;;;5096922;28;20047;-12
2022/04/04 03:23:56;;;;;;;20.95;13.63;;;5.30;77.10;;;;;;5096552;28;20064;-13
2022/04/04 03:26:23;;;;;;;23.20;14.45;;;5.30;77.30;;;;;;5096423;28;20107;-12
2022/04/04 03:28:49;;;;;;;20.13;13.80;;;5.30;77.40;;;;;;5096377;28;20032;-12
2022/04/04 03:31:15;;;;;;;21.80;13.93;;;5.20;77.40;;;;;;5095189;28;20043;-12
2022/04/04 03:33:43;;;;;;;19.60;12.88;;;5.30;77.50;;;;;;5096671;28;20031;-13
2022/04/04 03:36:10;;;;;;;16.83;11.98;;;5.20;77.50;;;;;;5096506;28;20055;-13
2022/04/04 03:38:36;;;;;;;20.02;12.30;;;5.30;77.50;;;;;;5096997;28;20020;-13
2022/04/04 03:41:02;;;;;;;18.42;12.30;;;5.20;77.50;;;;;;5096224;28;20031;-12
2022/04/04 03:43:28;;;;;;;23.10;14.88;;;5.20;77.70;;;;;;5096141;28;20064;-12
2022/04/04 03:45:54;;;;;;;14.93;10.35;;;5.20;77.90;;;;;;5096142;28;20556;-12
2022/04/04 03:48:20;;;;;;;15.77;11.32;;;5.20;77.90;;;;;;5095963;28;20020;-13
2022/04/04 03:50:47;;;;;;;21.30;14.68;;;5.20;78.00;;;;;;5095995;28;20016;-11
2022/04/04 03:53:13;;;;;;;19.52;12.10;;;5.20;78.50;;;;;;5095923;28;20083;-13
2022/04/04 03:55:40;;;;;;;28.05;16.27;;;5.20;78.20;;;;;;5096499;28;20039;-12
2022/04/04 03:58:08;;;;;;;23.55;15.27;;;5.20;78.20;;;;;;5095851;28;20024;-12
2022/04/04 04:00:35;;;;;;;24.42;16.13;;;5.20;78.00;;;;;;5095980;28;20032;-12
2022/04/04 04:03:01;;;;;;;24.27;16.15;;;5.20;78.90;;;;;;5096295;28;20044;-11
2022/04/04 04:05:27;;;;;;;24.17;15.77;;;5.10;78.50;;;;;;5095741;28;20086;-13
2022/04/04 04:07:54;;;;;;;19.58;12.93;;;5.10;78.10;;;;;;5094351;28;20028;-12
2022/04/04 04:10:21;;;;;;;22.83;15.02;;;5.10;77.80;;;;;;5095483;28;20480;-12
2022/04/04 04:12:48;;;;;;;23.30;15.07;;;5.10;77.60;;;;;;5096122;28;20085;-13
2022/04/04 04:15:17;;;;;;;22.20;14.07;;;5.10;77.80;;;;;;5095509;28;20077;-12
2022/04/04 04:17:43;;;;;;;24.55;16.15;;;5.10;77.60;;;;;;5095899;28;20099;-12
2022/04/04 04:20:29;;;;;;;22.85;15.27;;;5.10;77.60;;;;;;5095791;28;20028;-12
2022/04/04 04:22:55;;;;;;;21.75;14.18;;;5.10;78.00;;;;;;5095805;28;20097;-12
2022/04/04 04:25:27;;;;;;;23.77;15.30;;;5.10;77.70;;;;;;5095367;28;20473;-12
2022/04/04 04:27:54;;;;;;;28.17;15.98;;;5.10;77.50;;;;;;5095292;28;20077;-12
2022/04/04 04:30:21;;;;;;;22.73;13.52;;;5.10;77.70;;;;;;5095367;28;20115;-12
2022/04/04 04:32:49;;;;;;;24.63;14.35;;;5.10;77.60;;;;;;5095849;28;20024;-12
2022/04/04 04:35:17;;;;;;;21.90;13.90;;;5.10;78.00;;;;;;5095081;28;20028;-14
2022/04/04 04:37:45;;;;;;;24.35;13.88;;;5.20;78.20;;;;;;5095066;28;20492;-12
2022/04/04 04:40:12;;;;;;;23.58;12.93;;;5.10;78.00;;;;;;5095157;28;20035;-14
2022/04/04 04:42:39;;;;;;;22.98;12.80;;;5.10;77.80;;;;;;5094991;28;20043;-12
2022/04/04 04:45:06;;;;;;;18.35;11.77;;;5.20;77.40;;;;;;5095482;28;20484;-13
2022/04/04 04:47:34;;;;;;;26.65;13.15;;;5.20;77.30;;;;;;5059995;28;20469;-12
2022/04/04 04:50:01;;;;;;;21.63;13.98;;;5.30;77.20;;;;;;5095083;28;20051;-12
2022/04/04 04:52:28;;;;;;;21.10;12.43;;;5.40;77.30;;;;;;5094363;28;20092;-12
2022/04/04 04:54:54;;;;;;;19.90;12.20;;;5.40;77.00;;;;;;5095171;28;20028;-12
2022/04/04 04:57:21;;;;;;;21.17;12.02;;;5.30;76.90;;;;;;5095064;28;20035;-13
2022/04/04 04:59:48;;;;;;;22.08;12.05;;;5.40;76.80;;;;;;5094585;28;20044;-12
2022/04/04 05:02:15;;;;;;;18.60;11.82;;;5.40;76.60;;;;;;5094528;28;20020;-12
2022/04/04 05:04:40;;;;;;;19.25;10.63;;;5.40;76.50;;;;;;5095136;28;20039;-12
2022/04/04 05:07:08;;;;;;;16.88;9.85;;;5.40;76.30;;;;;;5094798;28;20012;-12
2022/04/04 05:09:35;;;;;;;19.15;11.32;;;5.40;76.10;;;;;;5094495;28;20034;-12
2022/04/04 05:12:02;;;;;;;21.05;11.23;;;5.50;76.10;;;;;;5094794;28;20384;-13
2022/04/04 05:14:28;;;;;;;16.13;9.32;;;5.50;76.00;;;;;;5094782;28;20020;-13
2022/04/04 05:16:55;;;;;;;16.83;10.63;;;5.50;75.70;;;;;;5094273;28;20123;-12
2022/04/04 05:19:22;;;;;;;15.50;8.13;;;5.50;75.70;;;;;;5093936;28;20032;-12
2022/04/04 05:21:49;;;;;;;15.25;9.18;;;5.60;75.40;;;;;;5094598;28;20032;-12
2022/04/04 05:24:16;;;;;;;15.90;8.68;;;5.60;75.40;;;;;;5094125;28;20028;-12
2022/04/04 05:26:43;;;;;;;15.98;9.20;;;5.60;75.30;;;;;;5094176;28;20081;-13
2022/04/04 05:29:09;;;;;;;21.92;12.25;;;5.70;75.20;;;;;;5094062;28;20103;-13
2022/04/04 05:31:36;;;;;;;16.42;9.70;;;5.70;75.30;;;;;;5094108;28;20119;-13
2022/04/04 05:34:07;;;;;;;21.35;11.70;;;5.70;75.30;;;;;;5094479;28;20531;-12
2022/04/04 05:36:33;;;;;;;16.95;8.88;;;5.80;75.10;;;;;;5094147;28;20048;-13
2022/04/04 05:39:00;;;;;;;14.30;8.20;;;5.80;75.10;;;;;;5093938;28;20078;-12
2022/04/04 05:41:27;;;;;;;16.52;9.55;;;5.90;75.00;;;;;;5093932;28;20045;-13
2022/04/04 05:43:54;;;;;;;14.27;9.18;;;5.90;74.80;;;;;;5094102;28;20107;-13
2022/04/04 05:46:20;;;;;;;15.50;9.02;;;6.00;74.70;;;;;;5093965;28;20020;-12
2022/04/04 05:48:46;;;;;;;19.42;10.80;;;6.20;74.50;;;;;;5093811;28;20388;-12
2022/04/04 05:51:16;;;;;;;19.33;11.00;;;6.30;74.30;;;;;;5093775;28;20024;-12
2022/04/04 05:53:44;;;;;;;22.92;12.05;;;6.40;74.10;;;;;;5093552;28;20051;-12
2022/04/04 05:56:10;;;;;;;23.50;13.10;;;6.70;73.80;;;;;;5093590;28;20443;-12
2022/04/04 05:58:38;;;;;;;22.25;12.77;;;6.90;73.50;;;;;;5093566;28;20048;-13
2022/04/04 06:01:04;;;;;;;22.13;12.27;;;7.10;73.30;;;;;;5092918;28;20024;-13
2022/04/04 06:03:33;;;;;;;26.75;13.75;;;7.40;72.50;;;;;;5093760;28;20476;-12
2022/04/04 06:05:58;;;;;;;19.42;11.40;;;7.60;71.00;;;;;;5093700;28;20095;-12
2022/04/04 06:08:24;;;;;;;20.75;12.93;;;7.70;71.20;;;;;;5092402;28;20107;-12
2022/04/04 06:10:50;;;;;;;20.90;11.75;;;7.80;70.50;;;;;;5093431;28;20545;-13
2022/04/04 06:13:18;;;;;;;20.35;11.90;;;7.80;70.70;;;;;;5093628;28;20082;-13
2022/04/04 06:15:46;;;;;;;20.95;12.05;;;7.90;70.10;;;;;;5093593;28;20040;-13
2022/04/04 06:18:13;;;;;;;22.15;12.27;;;8.00;70.30;;;;;;5093157;28;20029;-13
2022/04/04 06:20:40;;;;;;;21.52;12.07;;;8.10;69.70;;;;;;5093304;28;20384;-13
2022/04/04 06:23:06;;;;;;;19.90;13.15;;;8.30;69.40;;;;;;5093289;28;20020;-13
2022/04/04 06:25:32;;;;;;;18.70;12.38;;;8.50;68.70;;;;;;5093567;28;20073;-12
2022/04/04 06:27:58;;;;;;;19.85;12.38;;;8.80;68.60;;;;;;5093316;28;20036;-12
2022/04/04 06:30:26;;;;;;;19.58;12.55;;;8.90;68.00;;;;;;5092292;28;20032;-13
2022/04/04 06:32:53;;;;;;;22.88;14.05;;;9.00;68.20;;;;;;5093206;28;20077;-12
2022/04/04 06:35:19;;;;;;;21.48;12.65;;;9.10;66.90;;;;;;5091875;28;20487;-12
2022/04/04 06:37:46;;;;;;;18.48;11.90;;;9.20;67.00;;;;;;5091934;28;20039;-12
2022/04/04 06:40:14;;;;;;;21.48;13.38;;;9.20;66.20;;;;;;5093776;28;20031;-12
2022/04/04 06:42:42;;;;;;;22.80;12.60;;;9.30;66.00;;;;;;5093405;28;20156;-12
2022/04/04 06:45:10;;;;;;;19.05;11.90;;;9.40;66.10;;;;;;5093329;28;20028;-12
2022/04/04 06:47:37;;;;;;;21.38;13.68;;;9.50;66.10;;;;;;5093151;28;20017;-13
2022/04/04 06:50:04;;;;;;;22.50;14.27;;;9.60;65.30;;;;;;5093006;28;20024;-12
2022/04/04 06:52:30;;;;;;;19.48;12.65;;;9.70;65.50;;;;;;5091414;28;20052;-13
2022/04/04 06:54:56;;;;;;;19.65;12.40;;;9.70;65.90;;;;;;5093328;28;20028;-12
2022/04/04 06:57:23;;;;;;;19.17;11.63;;;10.00;65.30;;;;;;5092906;28;20031;-13
2022/04/04 06:59:49;;;;;;;18.55;12.50;;;10.40;63.90;;;;;;5092845;28;20032;-12
2022/04/04 07:02:15;;;;;;;20.13;12.73;;;10.80;63.20;;;;;;5093028;28;20031;-11
2022/04/04 07:04:42;;;;;;;20.00;12.60;;;11.10;61.00;;;;;;5092904;28;20392;-12
2022/04/04 07:07:09;;;;;;;18.48;12.75;;;11.10;61.80;;;;;;5093167;28;20028;-12
2022/04/04 07:09:35;;;;;;;17.40;12.07;;;11.10;60.70;;;;;;5092440;28;20434;-14
2022/04/04 07:12:02;;;;;;;18.13;12.43;;;11.10;62.30;;;;;;5093444;28;20105;-11
2022/04/04 07:14:29;;;;;;;18.02;12.32;;;11.00;61.80;;;;;;5091358;28;20073;-12
2022/04/04 07:16:55;;;;;;;17.70;11.23;;;11.00;61.50;;;;;;5091493;28;20032;-12
2022/04/04 07:19:22;;;;;;;18.25;12.35;;;11.00;61.60;;;;;;5092773;28;20024;-11
2022/04/04 07:21:50;;;;;;;17.25;12.05;;;11.10;61.50;;;;;;5093052;28;20016;-12
2022/04/04 07:24:20;;;;;;;16.27;9.35;;;11.30;61.70;;;;;;5092727;28;20107;-12
2022/04/04 07:26:48;;;;;;;19.73;11.60;;;11.40;61.40;;;;;;5092642;28;20492;-11
2022/04/04 07:29:17;;;;;;;20.52;12.45;;;11.40;60.90;;;;;;5092608;28;20036;-12
2022/04/04 07:31:43;;;;;;;21.67;13.80;;;11.70;60.50;;;;;;5092937;28;20031;-12
2022/04/04 07:34:10;;;;;;;19.45;13.30;;;11.80;60.10;;;;;;5092631;28;20491;-12
2022/04/04 07:36:37;;;;;;;20.17;13.02;;;11.90;59.40;;;;;;5092523;28;20059;-12
2022/04/04 07:39:05;;;;;;;21.08;14.00;;;12.00;59.40;;;;;;5092866;28;20040;-13
2022/04/04 07:41:31;;;;;;;19.88;13.23;;;12.00;57.90;;;;;;5092940;28;20034;-12
2022/04/04 07:43:57;;;;;;;20.55;13.32;;;12.10;58.70;;;;;;5096411;28;20108;-11
2022/04/04 07:46:23;;;;;;;21.45;14.95;;;12.00;59.10;;;;;;5095975;28;20451;-12
2022/04/04 07:48:50;;;;;;;20.40;12.95;;;12.00;59.30;;;;;;5096097;28;20020;-11
2022/04/04 07:51:16;;;;;;;19.98;13.57;;;12.00;59.80;;;;;;5096082;28;20036;-12
2022/04/04 07:53:42;;;;;;;22.92;15.43;;;12.10;59.80;;;;;;5095938;28;20068;-11
2022/04/04 07:56:08;;;;;;;21.58;14.32;;;12.20;59.90;;;;;;5096233;28;20459;-11
2022/04/04 07:58:34;;;;;;;23.05;16.30;;;12.20;60.00;;;;;;5095670;28;20495;-12
2022/04/04 08:01:01;;;;;;;24.63;15.48;;;12.30;59.20;;;;;;5095970;28;20048;-11
2022/04/04 08:03:27;;;;;;;23.58;16.63;;;12.30;59.00;;;;;;5095822;28;20081;-12
2022/04/04 08:05:54;;;;;;;23.15;15.32;;;12.20;58.70;;;;;;5096153;28;20020;-13
2022/04/04 08:08:20;;;;;;;28.27;16.60;;;12.10;59.10;;;;;;5094289;28;20365;-12
2022/04/04 08:10:46;;;;;;;22.15;15.95;;;12.00;59.40;;;;;;5095979;28;20521;-12
2022/04/04 08:13:12;;;;;;;23.40;16.50;;;11.90;59.40;;;;;;5094362;28;20110;-12
2022/04/04 08:15:38;;;;;;;21.73;15.02;;;11.80;59.70;;;;;;5095505;28;20198;-12
2022/04/04 08:18:04;;;;;;;23.15;15.32;;;11.70;60.30;;;;;;5095969;28;20034;-11
2022/04/04 08:20:31;;;;;;;20.25;14.48;;;11.70;60.50;;;;;;5094179;28;20032;-11
2022/04/04 08:22:57;;;;;;;24.33;16.02;;;11.70;60.50;;;;;;5095468;28;20499;-11
2022/04/04 08:25:23;;;;;;;25.58;17.00;;;11.70;60.80;;;;;;5095386;28;20028;-12
2022/04/04 08:27:50;;;;;;;21.60;15.35;;;11.70;60.70;;;;;;5095349;28;20506;-12
2022/04/04 08:30:18;;;;;;;22.08;14.68;;;11.70;60.90;;;;;;5095853;28;20036;-12
2022/04/04 08:32:45;;;;;;;23.95;15.93;;;11.90;61.30;;;;;;5095282;28;20039;-12
2022/04/04 08:35:13;;;;;;;25.35;16.33;;;11.90;60.90;;;;;;5095578;28;20021;-11
2022/04/04 08:37:41;;;;;;;25.63;17.38;;;12.10;61.00;;;;;;5095085;28;20032;-12
2022/04/04 08:40:10;;;;;;;24.65;17.20;;;12.20;60.80;;;;;;5095079;28;20411;-12
2022/04/04 08:42:37;;;;;;;23.80;15.75;;;12.30;59.70;;;;;;5093665;28;20498;-12
2022/04/04 08:45:05;;;;;;;19.60;13.48;;;12.40;59.10;;;;;;5095052;28;20099;-12
2022/04/04 08:47:33;;;;;;;20.58;12.68;;;12.50;59.20;;;;;;5094910;28;20035;-12
2022/04/04 08:50:01;;;;;;;20.00;13.10;;;12.60;56.70;;;;;;5094931;28;20020;-12
2022/04/04 08:52:27;;;;;;;18.17;12.82;;;12.60;57.70;;;;;;5094412;28;20090;-12
2022/04/04 08:54:54;;;;;;;17.60;11.77;;;12.80;57.10;;;;;;5094059;28;20024;-12
2022/04/04 08:57:20;;;;;;;18.58;13.23;;;12.90;57.10;;;;;;5094912;28;20028;-12
2022/04/04 08:59:46;;;;;;;19.95;11.77;;;13.20;56.90;;;;;;5094991;28;20028;-11
2022/04/04 09:02:13;;;;;;;15.30;10.43;;;13.20;54.20;;;;;;5094666;28;20031;-12
2022/04/04 09:04:40;;;;;;;15.75;10.23;;;13.00;54.70;;;;;;5094972;28;20125;-11
2022/04/04 09:07:09;;;;;;;12.15;8.20;;;12.90;55.20;;;;;;5094925;28;20028;-12
2022/04/04 09:09:43;;;;;;;13.35;8.63;;;13.00;55.10;;;;;;5094725;28;20462;-12
2022/04/04 09:12:11;;;;;;;11.23;7.85;;;13.20;55.00;;;;;;5094455;28;20025;-13
2022/04/04 09:14:48;;;;;;;14.02;8.32;;;13.40;54.50;;;;;;5094580;28;20036;-12
2022/04/04 09:17:17;;;;;;;11.18;6.88;;;13.40;54.30;;;;;;5094401;28;20047;-12
2022/04/04 09:19:43;;;;;;;10.38;5.82;;;13.70;53.10;;;;;;5094348;28;20488;-12
2022/04/04 09:22:11;;;;;;;9.38;6.70;;;13.90;50.80;;;;;;5094372;28;20435;-11
2022/04/04 09:24:55;;;;;;;13.32;7.47;;;14.10;50.80;;;;;;5095256;28;20027;-12
2022/04/04 09:27:34;;;;;;;12.95;6.38;;;14.40;50.80;;;;;;5094215;28;20024;-12
2022/04/04 09:30:03;;;;;;;8.23;5.43;;;14.60;51.00;;;;;;5094432;28;20028;-12
2022/04/04 09:32:40;;;;;;;9.18;4.93;;;14.90;49.90;;;;;;5094252;28;20032;-12
2022/04/04 09:35:08;;;;;;;8.88;5.40;;;15.00;48.80;;;;;;5094324;28;20410;-12
2022/04/04 09:37:38;;;;;;;8.20;5.20;;;15.20;48.20;;;;;;5093938;28;20039;-12
2022/04/04 09:40:13;;;;;;;7.38;4.85;;;15.40;48.20;;;;;;5094296;28;20024;-12
2022/04/04 09:42:40;;;;;;;7.85;4.63;;;15.90;46.20;;;;;;5094255;28;20028;-12
2022/04/04 09:45:12;;;;;;;8.45;4.53;;;16.10;45.60;;;;;;5092634;28;20148;-12
2022/04/04 09:47:48;;;;;;;9.90;6.20;;;16.40;45.00;;;;;;5093841;28;20077;-12
2022/04/04 09:50:38;;;;;;;10.73;6.40;;;16.50;44.80;;;;;;5094449;28;20093;-12
2022/04/04 09:53:19;;;;;;;10.43;6.28;;;16.50;44.60;;;;;;5093546;28;20093;-11
2022/04/04 09:55:55;;;;;;;11.35;6.10;;;16.50;44.10;;;;;;5093872;28;20055;-12
2022/04/04 09:58:31;;;;;;;9.43;6.25;;;16.50;44.60;;;;;;5093722;28;20043;-13
2022/04/04 10:00:58;;;;;;;9.85;6.18;;;16.80;45.70;;;;;;5093694;28;20044;-12
2022/04/04 10:03:25;;;;;;;9.00;5.45;;;16.90;45.30;;;;;;5094206;28;20024;-12
2022/04/04 10:05:56;;;;;;;10.02;5.88;;;17.10;44.70;;;;;;5093492;28;20028;-12
2022/04/04 10:08:25;;;;;;;7.95;5.32;;;17.20;43.90;;;;;;5093722;28;20028;-12
2022/04/04 10:10:55;;;;;;;7.72;5.20;;;17.30;44.10;;;;;;5093431;28;20536;-12
2022/04/04 10:13:23;;;;;;;8.70;5.38;;;17.40;42.60;;;;;;5093357;28;20568;-12
2022/04/04 10:15:51;;;;;;;8.25;4.97;;;17.30;42.60;;;;;;5093578;28;20541;-12
2022/04/04 10:18:19;;;;;;;8.95;5.65;;;17.10;43.10;;;;;;5093526;28;20055;-11
2022/04/04 10:20:53;;;;;;;8.25;5.68;;;16.80;44.70;;;;;;5093307;28;20483;-12
2022/04/04 10:23:22;;;;;;;9.45;5.35;;;16.60;45.70;;;;;;5093631;28;20562;-12
2022/04/04 10:25:57;;;;;;;9.13;5.65;;;16.60;45.90;;;;;;5093535;28;20051;-12
2022/04/04 10:28:32;;;;;;;8.35;4.72;;;16.50;45.60;;;;;;5093001;28;20074;-12
2022/04/04 10:31:18;;;;;;;8.38;5.53;;;16.50;45.40;;;;;;5093502;28;20024;-12
2022/04/04 10:33:45;;;;;;;8.43;4.95;;;16.60;44.10;;;;;;5093578;28;20046;-13
2022/04/04 10:36:18;;;;;;;9.15;5.32;;;16.60;44.00;;;;;;5092852;28;20028;-16
2022/04/04 10:38:49;;;;;;;11.10;5.50;;;16.50;44.10;;;;;;5093530;28;20464;-12
2022/04/04 10:41:21;;;;;;;7.75;4.90;;;16.60;43.20;;;;;;5093447;28;20028;-12
2022/04/04 10:43:52;;;;;;;7.25;4.43;;;16.50;43.30;;;;;;5093061;28;20028;-12
2022/04/04 10:46:20;;;;;;;6.53;4.20;;;16.40;42.60;;;;;;5093117;28;20020;-12
2022/04/04 10:48:50;;;;;;;8.48;4.80;;;16.20;43.40;;;;;;5093107;28;20020;-11
2022/04/04 10:51:37;;;;;;;6.82;4.43;;;16.10;43.50;;;;;;5092982;28;20020;-12
2022/04/04 10:54:08;;;;;;;7.43;4.13;;;16.00;44.00;;;;;;5092926;28;20052;-12
2022/04/04 10:56:46;;;;;;;6.82;4.32;;;15.90;44.30;;;;;;5092665;28;20031;-13
2022/04/04 10:59:23;;;;;;;6.28;4.10;;;15.90;43.60;;;;;;5093191;28;20062;-12
2022/04/04 11:02:02;;;;;;;6.57;4.15;;;15.90;43.80;;;;;;5093245;28;20100;-12
2022/04/04 11:04:29;;;;;;;6.95;4.40;;;15.90;43.30;;;;;;5093379;28;20410;-11
2022/04/04 11:09:56;;;;;;;6.60;3.90;;;15.90;43.00;;;;;;5093261;28;20070;-12
2022/04/04 11:12:25;;;;;;;6.70;3.83;;;15.80;43.40;;;;;;5092933;28;20032;-12
2022/04/04 11:15:01;;;;;;;7.22;3.85;;;15.70;43.40;;;;;;5092712;28;20024;-12
2022/04/04 11:20:59;;;;;;;6.78;4.30;;;15.50;44.90;;;;;;5096745;28;20059;-11
2022/04/04 11:22:55;;;;;;;6.70;4.07;;;15.40;45.20;;;;;;5087539;28;20028;-11
2022/04/04 11:25:22;;;;;;;6.63;4.28;;;15.30;44.90;;;;;;5096579;28;20039;-12
2022/04/04 11:27:49;;;;;;;6.95;4.30;;;15.20;45.30;;;;;;5096550;28;20503;-11
2022/04/04 11:30:20;;;;;;;7.30;4.32;;;15.10;45.90;;;;;;5096173;28;20028;-12
2022/04/04 11:32:49;;;;;;;7.70;3.85;;;15.20;45.50;;;;;;5096471;28;20043;-11
2022/04/04 11:35:27;;;;;;;5.88;3.90;;;15.20;44.10;;;;;;5096367;28;20035;-12
2022/04/04 11:38:11;;;;;;;6.85;3.85;;;15.00;44.80;;;;;;5096285;28;20085;-11
2022/04/04 11:40:44;;;;;;;6.20;3.70;;;14.90;45.00;;;;;;5096306;28;20112;-12
2022/04/04 11:43:13;;;;;;;7.10;3.78;;;14.90;45.30;;;;;;5096483;28;20028;-11
2022/04/04 11:45:41;;;;;;;6.88;4.07;;;14.80;45.30;;;;;;5096490;28;20051;-12
2022/04/04 11:48:17;;;;;;;7.65;4.72;;;14.90;44.80;;;;;;5096134;28;20418;-11
2022/04/04 11:50:44;;;;;;;6.95;4.20;;;14.90;44.80;;;;;;5096156;28;20076;-11
2022/04/04 11:53:12;;;;;;;10.38;4.40;;;14.90;44.70;;;;;;5095775;28;20052;-11
2022/04/04 11:55:41;;;;;;;7.57;4.13;;;14.90;44.70;;;;;;5096121;28;20028;-11
2022/04/04 11:58:12;;;;;;;7.72;4.53;;;14.70;45.20;;;;;;5095958;28;20107;-11
2022/04/04 12:00:40;;;;;;;8.98;4.82;;;14.70;45.40;;;;;;5097252;28;20032;-11
2022/04/04 12:03:11;;;;;;;7.15;4.53;;;14.70;45.90;;;;;;5096692;28;20039;-11
2022/04/04 12:05:42;;;;;;;7.53;4.43;;;14.70;46.40;;;;;;5095830;28;20028;-12
2022/04/04 12:08:10;;;;;;;10.18;4.60;;;14.80;46.60;;;;;;5095762;28;20029;-11
2022/04/04 12:10:37;;;;;;;7.30;4.28;;;14.90;46.60;;;;;;5095829;28;20117;-12
2022/04/04 12:13:19;;;;;;;6.72;4.00;;;15.00;46.40;;;;;;5096207;28;20028;-12
2022/04/04 12:15:48;;;;;;;6.95;4.63;;;15.20;45.80;;;;;;5095608;28;20545;-11
2022/04/04 12:18:27;;;;;;;6.72;4.00;;;15.20;45.60;;;;;;5095300;28;20028;-12
2022/04/04 12:21:00;;;;;;;7.65;4.75;;;15.20;45.80;;;;;;5095825;28;20027;-13
2022/04/04 12:26:14;;;;;;;7.25;4.15;;;15.20;46.40;;;;;;5095612;28;20242;-11
2022/04/04 12:28:58;;;;;;;7.72;4.43;;;15.30;46.20;;;;;;5094056;28;20385;-11
2022/04/04 12:31:26;;;;;;;8.73;4.18;;;15.30;46.00;;;;;;5095364;28;20031;-12
2022/04/04 12:34:01;;;;;;;6.78;3.85;;;15.40;46.20;;;;;;5095285;28;20472;-11
2022/04/04 12:36:41;;;;;;;8.95;4.60;;;15.50;46.10;;;;;;5095245;28;20054;-12
2022/04/04 12:39:20;;;;;;;9.18;4.50;;;15.60;45.80;;;;;;5095232;28;20032;-12
2022/04/04 12:41:51;;;;;;;9.43;4.50;;;15.80;45.50;;;;;;5095468;28;20030;-12
2022/04/04 12:44:25;;;;;;;10.88;5.40;;;15.90;45.90;;;;;;5095122;28;20376;-12
2022/04/04 12:47:03;;;;;;;;;;;16.10;45.80;;;;;;5095515;28;20028;-11
2022/04/04 12:49:30;;;;;;;9.15;3.95;;;16.10;45.20;;;;;;5095050;28;20279;-11
2022/04/04 12:52:05;;;;;;;6.78;4.57;;;16.30;45.80;;;;;;5095531;28;20051;-13
2022/04/04 12:54:40;;;;;;;8.60;4.85;;;16.50;45.30;;;;;;5094721;28;20028;-11